Time;durP1;ratioP1;P1;durP2;ratioP2;P2;SDS_P1;SDS_P2;PMS_P1;PMS_P2;Temp;Humidity;BMP_temperature;BMP_pressure;BME280_temperature;BME280_humidity;BME280_pressure;Samples;Min_cycle;Max_cycle;Signal;HPM_P1;HPM_P2
2021/04/16 00:02:09;;;;;;;3.70;3.40;;;;;;;5.85;47.51;96167.56;5010819;28;20215;-81
2021/04/16 00:04:35;;;;;;;3.80;3.50;;;;;;;5.81;47.91;96163.66;5011997;28;20230;-81
2021/04/16 00:07:01;;;;;;;4.00;3.60;;;;;;;5.71;47.80;96167.16;5012098;28;20233;-81
2021/04/16 00:09:28;;;;;;;4.33;3.47;;;;;;;5.74;48.25;96166.91;5010799;28;20686;-81
2021/04/16 00:11:54;;;;;;;3.70;3.40;;;;;;;5.73;47.94;96158.44;5011295;28;20206;-83
2021/04/16 00:14:21;;;;;;;3.73;3.20;;;;;;;5.68;48.44;96154.66;5010721;28;20207;-83
2021/04/16 00:16:48;;;;;;;4.57;3.60;;;;;;;5.64;48.41;96164.31;5011611;28;20206;-81
2021/04/16 00:19:14;;;;;;;3.90;3.43;;;;;;;5.67;48.81;96158.94;5011148;28;20203;-83
2021/04/16 00:21:41;;;;;;;5.23;3.37;;;;;;;5.68;48.52;96155.47;5011314;28;20227;-82
2021/04/16 00:24:10;;;;;;;4.07;3.77;;;;;;;5.61;49.07;96148.44;5010814;28;20597;-82
2021/04/16 00:26:36;;;;;;;4.10;3.53;;;;;;;5.54;48.85;96149.00;5011632;28;20206;-82
2021/04/16 00:29:03;;;;;;;3.93;3.37;;;;;;;5.49;48.94;96148.56;5011273;28;20287;-83
2021/04/16 00:31:31;;;;;;;3.60;3.23;;;;;;;5.41;49.62;96150.94;5011096;28;20199;-82
2021/04/16 00:34:00;;;;;;;3.30;3.00;;;;;;;5.38;49.11;96150.44;5011129;28;20615;-84
2021/04/16 00:36:25;;;;;;;3.90;3.50;;;;;;;5.43;49.22;96150.81;5011312;28;20215;-83
2021/04/16 00:38:51;;;;;;;3.70;3.40;;;;;;;5.46;49.72;96145.47;5010715;28;20199;-82
2021/04/16 00:41:20;;;;;;;3.77;3.37;;;;;;;5.44;49.76;96145.59;5011111;28;20324;-81
2021/04/16 00:43:47;;;;;;;3.60;3.30;;;;;;;5.37;50.20;96146.25;5011061;28;20292;-82
2021/04/16 00:46:25;;;;;;;3.43;3.13;;;;;;;5.33;50.32;96142.34;5011441;28;20206;-82
2021/04/16 00:48:54;;;;;;;3.90;3.50;;;;;;;5.33;49.82;96147.44;5011412;28;20202;-82
2021/04/16 00:51:26;;;;;;;3.80;3.20;;;;;;;5.32;50.48;96144.09;5010737;28;20187;-80
2021/04/16 00:53:52;;;;;;;3.87;3.53;;;;;;;5.34;50.24;96139.66;5011243;28;20234;-81
2021/04/16 00:56:22;;;;;;;3.50;3.20;;;;;;;5.33;50.16;96140.59;5011396;28;20205;-84
2021/04/16 00:58:48;;;;;;;3.60;3.30;;;;;;;5.40;49.74;96138.31;5011417;28;20276;-81
2021/04/16 01:01:14;;;;;;;3.50;3.20;;;;;;;5.39;49.68;96142.59;5010384;28;20237;-82
2021/04/16 01:03:40;;;;;;;3.40;3.10;;;;;;;5.30;50.54;96133.19;5010745;28;20230;-83
2021/04/16 01:06:08;;;;;;;3.83;3.50;;;;;;;5.26;50.34;96131.03;5010530;28;20207;-82
2021/04/16 01:08:36;;;;;;;3.57;3.27;;;;;;;5.22;50.57;96133.03;5010559;28;20195;-83
2021/04/16 01:11:04;;;;;;;4.03;3.30;;;;;;;5.27;50.51;96130.09;5010177;28;20390;-82
2021/04/16 01:13:30;;;;;;;4.23;3.23;;;;;;;5.22;50.49;96130.47;5011107;28;20219;-82
2021/04/16 01:16:00;;;;;;;3.83;3.50;;;;;;;5.02;51.27;96129.59;5011285;28;20702;-81
2021/04/16 01:18:30;;;;;;;4.10;3.30;;;;;;;5.04;50.80;96126.94;5010781;28;20195;-82
2021/04/16 01:20:59;;;;;;;3.80;3.50;;;;;;;5.03;50.95;96126.13;5013165;28;20227;-83
2021/04/16 01:23:32;;;;;;;3.50;3.20;;;;;;;5.04;51.07;96129.47;4994904;28;20227;-81
2021/04/16 01:26:03;;;;;;;3.73;3.40;;;;;;;5.08;50.69;96128.28;5004667;28;20199;-81
2021/04/16 01:28:29;;;;;;;4.83;3.40;;;;;;;5.16;50.89;96126.72;5014695;28;20221;-83
2021/04/16 01:30:59;;;;;;;3.67;3.37;;;;;;;5.13;50.51;96128.72;5013725;28;20226;-83
2021/04/16 01:33:25;;;;;;;4.10;3.70;;;;;;;5.10;51.20;96128.97;5014134;28;20242;-82
2021/04/16 01:35:51;;;;;;;3.83;3.33;;;;;;;5.12;51.03;96125.34;5013996;28;20232;-83
2021/04/16 01:38:18;;;;;;;4.10;3.40;;;;;;;5.10;51.06;96119.56;5014666;28;20202;-84
2021/04/16 01:40:44;;;;;;;4.20;3.80;;;;;;;5.02;51.35;96123.69;5013365;28;20745;-83
2021/04/16 01:43:24;;;;;;;4.33;3.70;;;;;;;4.97;51.38;96119.00;5013836;28;20283;-83
2021/04/16 01:46:00;;;;;;;4.07;3.67;;;;;;;5.00;51.47;96108.53;5013297;28;20209;-84
2021/04/16 01:48:34;;;;;;;5.63;3.93;;;;;;;5.02;51.47;96111.75;5013304;28;20241;-83
2021/04/16 01:51:00;;;;;;;3.77;3.47;;;;;;;4.99;51.71;96112.03;5013905;28;20206;-83
2021/04/16 01:53:26;;;;;;;4.80;3.60;;;;;;;4.92;52.01;96107.56;5013542;28;20242;-82
2021/04/16 01:55:52;;;;;;;4.13;3.73;;;;;;;4.88;51.72;96104.44;5014283;28;20198;-82
2021/04/16 01:58:18;;;;;;;4.00;3.57;;;;;;;4.83;52.27;96102.28;5013947;28;20330;-81
2021/04/16 02:00:45;;;;;;;3.90;3.60;;;;;;;4.87;51.77;96110.47;5013454;28;20261;-82
2021/04/16 02:03:11;;;;;;;3.77;3.47;;;;;;;4.79;52.55;96100.94;5012819;28;20223;-83
2021/04/16 02:05:37;;;;;;;4.87;3.93;;;;;;;4.83;52.27;96106.56;5013792;28;20584;-82
2021/04/16 02:08:04;;;;;;;3.67;3.37;;;;;;;4.84;51.94;96106.44;5013465;28;20198;-81
2021/04/16 02:10:30;;;;;;;5.83;3.60;;;;;;;4.69;52.58;96104.38;5012707;28;20227;-83
2021/04/16 02:12:56;;;;;;;3.90;3.60;;;;;;;4.72;52.45;96104.13;5013263;28;20693;-83
2021/04/16 02:15:22;;;;;;;4.70;3.63;;;;;;;4.73;52.15;96101.44;5012512;28;20207;-81
2021/04/16 02:17:49;;;;;;;5.00;3.80;;;;;;;4.63;52.54;96102.31;5013432;28;20682;-84
2021/04/16 02:20:17;;;;;;;4.00;3.60;;;;;;;4.67;52.32;96107.03;5013066;28;20229;-84
2021/04/16 02:22:43;;;;;;;4.10;3.70;;;;;;;4.68;52.90;96105.31;5013444;28;20674;-84
2021/04/16 02:25:14;;;;;;;4.63;4.13;;;;;;;4.64;53.17;96103.94;5012836;28;20246;-84
2021/04/16 02:27:40;;;;;;;5.03;3.70;;;;;;;4.68;52.43;96097.66;5012849;28;20249;-84
2021/04/16 02:30:07;;;;;;;4.37;3.67;;;;;;;4.68;52.60;96100.19;5012455;28;20202;-84
2021/04/16 02:32:33;;;;;;;4.30;3.90;;;;;;;4.64;53.25;96093.72;5012344;28;20207;-82
2021/04/16 02:35:00;;;;;;;3.83;3.50;;;;;;;4.62;52.79;96098.94;5013399;28;20226;-83
2021/04/16 02:37:26;;;;;;;4.70;4.17;;;;;;;4.61;53.13;96099.91;5012782;28;20206;-83
2021/04/16 02:39:52;;;;;;;4.20;3.80;;;;;;;4.65;52.31;96092.78;5013062;28;20205;-83
2021/04/16 02:42:18;;;;;;;4.90;3.80;;;;;;;4.66;52.86;96094.41;5013360;28;20195;-83
2021/04/16 02:44:45;;;;;;;4.10;3.70;;;;;;;4.66;52.90;96094.41;5013547;28;20234;-83
2021/04/16 02:47:12;;;;;;;4.53;4.13;;;;;;;4.65;52.71;96085.97;5012971;28;20218;-81
2021/04/16 02:49:38;;;;;;;3.93;3.53;;;;;;;4.51;53.41;96086.28;5012840;28;20198;-81
2021/04/16 02:52:06;;;;;;;4.50;3.93;;;;;;;4.41;53.23;96088.81;5012286;28;20197;-82
2021/04/16 02:54:32;;;;;;;5.20;3.87;;;;;;;4.35;53.69;96089.31;5012281;28;20234;-82
2021/04/16 02:56:59;;;;;;;4.60;4.20;;;;;;;4.31;53.82;96090.50;5012254;28;20202;-82
2021/04/16 02:59:25;;;;;;;6.10;3.93;;;;;;;4.39;53.83;96085.59;5011954;28;20198;-81
2021/04/16 03:01:52;;;;;;;4.03;3.70;;;;;;;4.45;53.57;96087.59;5012910;28;20223;-80
2021/04/16 03:04:18;;;;;;;4.33;3.70;;;;;;;4.40;53.58;96084.66;5012551;28;20226;-81
2021/04/16 03:06:45;;;;;;;4.37;3.97;;;;;;;4.34;53.87;96084.34;5013049;28;20221;-81
2021/04/16 03:09:12;;;;;;;4.30;3.90;;;;;;;4.30;54.13;96080.41;5012163;28;20206;-83
2021/04/16 03:11:38;;;;;;;4.57;4.03;;;;;;;4.30;53.57;96072.78;5011837;28;20235;-83
2021/04/16 03:14:04;;;;;;;5.57;4.40;;;;;;;4.26;54.24;96077.31;5011868;28;20215;-83
2021/04/16 03:16:30;;;;;;;4.97;4.47;;;;;;;4.30;54.34;96073.56;5012810;28;20209;-82
2021/04/16 03:18:58;;;;;;;4.73;4.27;;;;;;;4.35;54.05;96074.00;5012064;28;20206;-81
2021/04/16 03:21:25;;;;;;;4.73;4.33;;;;;;;4.38;53.58;96071.22;5011954;28;20706;-81
2021/04/16 03:23:51;;;;;;;4.20;3.80;;;;;;;4.36;54.01;96075.63;5012629;28;20230;-81
2021/04/16 03:26:22;;;;;;;7.03;4.00;;;;;;;4.31;54.00;96082.03;5012637;28;20203;-83
2021/04/16 03:28:52;;;;;;;6.23;4.23;;;;;;;4.29;54.38;96081.34;5012902;28;20226;-83
2021/04/16 03:31:18;;;;;;;4.70;3.90;;;;;;;4.35;53.65;96080.84;5011755;28;20203;-83
2021/04/16 03:33:44;;;;;;;4.43;4.03;;;;;;;4.34;54.57;96076.69;5011538;28;20223;-82
2021/04/16 03:36:10;;;;;;;4.00;3.70;;;;;;;4.36;54.03;96072.28;5011347;28;20209;-82
2021/04/16 03:38:36;;;;;;;4.80;4.27;;;;;;;4.37;53.64;96074.69;5011413;28;20234;-82
2021/04/16 03:41:04;;;;;;;5.13;4.40;;;;;;;4.31;53.85;96075.19;5011514;28;20229;-82
2021/04/16 03:43:30;;;;;;;5.73;4.10;;;;;;;4.29;54.09;96076.25;5012127;28;20215;-81
2021/04/16 03:45:56;;;;;;;5.20;4.37;;;;;;;4.28;53.70;96074.63;5010838;28;20488;-83
2021/04/16 03:48:22;;;;;;;5.57;4.73;;;;;;;4.21;53.66;96079.44;5011596;28;20228;-82
2021/04/16 03:50:49;;;;;;;6.00;4.30;;;;;;;4.25;53.62;96082.53;5011388;28;20285;-82
2021/04/16 03:53:15;;;;;;;5.00;4.50;;;;;;;4.23;53.93;96087.78;5011008;28;20219;-82
2021/04/16 03:55:40;;;;;;;4.33;3.97;;;;;;;4.19;53.47;96081.31;5011148;28;20206;-82
2021/04/16 03:58:09;;;;;;;8.50;4.30;;;;;;;4.16;54.45;96084.09;5011323;28;20314;-83
2021/04/16 04:00:38;;;;;;;5.10;4.57;;;;;;;4.08;54.30;96091.53;5010993;28;20234;-81
2021/04/16 04:03:05;;;;;;;6.63;4.53;;;;;;;4.00;53.97;96086.28;5010113;28;20249;-82
2021/04/16 04:05:31;;;;;;;5.23;4.40;;;;;;;3.95;54.71;96083.28;5011314;28;20214;-82
2021/04/16 04:07:57;;;;;;;5.60;4.10;;;;;;;3.94;54.60;96086.75;5012035;28;20213;-82
2021/04/16 04:10:24;;;;;;;5.53;4.10;;;;;;;3.99;54.53;96089.75;5010899;28;20226;-84
2021/04/16 04:12:51;;;;;;;5.87;4.43;;;;;;;3.98;54.76;96088.13;5010017;28;20586;-82
2021/04/16 04:15:18;;;;;;;5.40;4.90;;;;;;;3.75;55.00;96095.88;5010358;28;20202;-82
2021/04/16 04:17:46;;;;;;;5.90;4.97;;;;;;;3.77;54.92;96094.00;5010863;28;20195;-83
2021/04/16 04:20:15;;;;;;;6.30;4.70;;;;;;;3.80;54.89;96093.78;5011793;28;20218;-84
2021/04/16 04:22:41;;;;;;;4.70;4.27;;;;;;;3.74;55.34;96096.00;5011864;28;20618;-84
2021/04/16 04:25:08;;;;;;;5.00;4.47;;;;;;;3.75;55.29;96098.41;5011490;28;20223;-83
2021/04/16 04:27:34;;;;;;;8.67;4.77;;;;;;;3.63;55.95;96099.41;5010838;28;20592;-81
2021/04/16 04:30:00;;;;;;;4.93;4.53;;;;;;;3.58;56.21;96093.84;5011908;28;20202;-81
2021/04/16 04:32:26;;;;;;;5.07;4.57;;;;;;;3.59;55.75;96099.75;5011888;28;20226;-85
2021/04/16 04:34:53;;;;;;;7.57;4.50;;;;;;;3.51;57.30;96102.09;5012421;28;20749;-81
2021/04/16 04:37:22;;;;;;;5.53;5.03;;;;;;;3.58;56.73;96101.50;5011837;28;20202;-84
2021/04/16 04:39:48;;;;;;;9.50;7.93;;;;;;;3.55;57.03;96103.47;5010011;28;20201;-81
2021/04/16 04:42:15;;;;;;;22.83;16.03;;;;;;;3.62;57.28;96097.78;5000415;28;20285;-81
2021/04/16 04:44:42;;;;;;;9.80;6.90;;;;;;;3.68;56.91;96099.81;5008249;28;20230;-83
2021/04/16 04:47:10;;;;;;;5.60;5.10;;;;;;;3.75;56.30;96105.25;5010324;28;20222;-81
2021/04/16 04:49:37;;;;;;;6.93;4.57;;;;;;;3.70;56.82;96100.50;5010557;28;20210;-81
2021/04/16 04:52:17;;;;;;;6.90;5.10;;;;;;;3.62;57.58;96107.16;5008162;28;20627;-84
2021/04/16 04:54:48;;;;;;;8.33;4.93;;;;;;;3.63;56.85;96113.88;5007484;28;20223;-81
2021/04/16 04:57:15;;;;;;;6.10;4.70;;;;;;;3.76;56.58;96104.31;5012560;28;20211;-82
2021/04/16 04:59:41;;;;;;;5.50;4.83;;;;;;;3.86;56.65;96112.81;5012390;28;20198;-82
2021/04/16 05:02:07;;;;;;;7.17;5.13;;;;;;;3.79;57.12;96107.44;5011497;28;20226;-81
2021/04/16 05:04:35;;;;;;;6.63;5.13;;;;;;;3.70;56.96;96109.88;5005356;28;20215;-83
2021/04/16 05:07:04;;;;;;;5.53;5.03;;;;;;;3.75;57.43;96103.50;5007563;28;20289;-82
2021/04/16 05:09:34;;;;;;;5.33;4.83;;;;;;;3.83;56.85;96114.84;5006554;28;20199;-81
2021/04/16 05:12:00;;;;;;;7.77;4.97;;;;;;;3.77;56.99;96106.75;5011097;28;20187;-82
2021/04/16 05:14:27;;;;;;;7.03;5.10;;;;;;;3.80;57.07;96116.69;5014141;28;20289;-81
2021/04/16 05:16:53;;;;;;;6.27;5.53;;;;;;;3.90;57.02;96108.31;5014429;28;20206;-82
2021/04/16 05:19:19;;;;;;;5.77;5.27;;;;;;;3.99;57.45;96108.38;5011600;28;20633;-82
2021/04/16 05:21:45;;;;;;;5.53;5.03;;;;;;;4.16;56.92;96112.94;5013582;28;20225;-81
2021/04/16 05:24:13;;;;;;;7.13;5.67;;;;;;;4.12;58.49;96110.75;5012723;28;20225;-81
2021/04/16 05:26:40;;;;;;;7.57;5.20;;;;;;;3.92;60.03;96114.91;5013374;28;20745;-81
2021/04/16 05:29:07;;;;;;;9.27;6.50;;;;;;;4.11;58.13;96122.69;5013013;28;20274;-82
2021/04/16 05:31:33;;;;;;;7.90;5.80;;;;;;;4.18;58.08;96115.38;5013028;28;20207;-81
2021/04/16 05:33:59;;;;;;;7.67;5.67;;;;;;;4.33;57.17;96121.75;5013236;28;20215;-81
2021/04/16 05:36:26;;;;;;;6.13;5.53;;;;;;;4.44;56.57;96118.31;5013783;28;20623;-82
2021/04/16 05:38:52;;;;;;;6.10;5.50;;;;;;;4.38;57.11;96113.75;5014075;28;20256;-82
2021/04/16 05:41:18;;;;;;;8.97;5.57;;;;;;;4.45;56.91;96117.38;5013108;28;20855;-82
2021/04/16 05:43:45;;;;;;;8.13;5.37;;;;;;;4.45;57.07;96125.84;5012540;28;20305;-80
2021/04/16 05:46:12;;;;;;;6.23;5.70;;;;;;;4.40;57.71;96120.34;5013115;28;20194;-81
2021/04/16 05:48:38;;;;;;;6.43;5.77;;;;;;;4.39;58.09;96116.16;5013331;28;20207;-80
2021/04/16 05:51:04;;;;;;;7.03;5.73;;;;;;;4.34;57.94;96125.94;5012779;28;20257;-79
2021/04/16 05:53:30;;;;;;;6.20;5.70;;;;;;;4.21;58.99;96119.41;5012238;28;20227;-82
2021/04/16 05:55:56;;;;;;;6.43;5.60;;;;;;;4.23;58.96;96128.56;5012478;28;20207;-82
2021/04/16 05:58:22;;;;;;;7.43;5.63;;;;;;;4.42;58.60;96122.75;5014136;28;20238;-81
2021/04/16 06:00:49;;;;;;;5.17;4.67;;;;;;;4.56;64.87;96112.22;5012988;28;20222;-82
2021/04/16 06:03:17;;;;;;;4.93;4.37;;;;;;;5.14;67.18;96126.03;5013443;28;20229;-81
2021/04/16 06:05:43;;;;;;;4.77;4.37;;;;;;;5.70;65.19;96112.69;5012128;28;20199;-82
2021/04/16 06:08:12;;;;;;;6.80;5.20;;;;;;;5.96;59.55;96113.03;5012538;28;20202;-82
2021/04/16 06:10:38;;;;;;;5.30;4.80;;;;;;;5.97;62.65;96112.06;5011442;28;20231;-81
2021/04/16 06:13:05;;;;;;;6.20;5.00;;;;;;;6.29;61.33;96114.34;5012150;28;20233;-81
2021/04/16 06:15:31;;;;;;;6.07;5.23;;;;;;;6.46;56.88;96110.25;5011960;28;20555;-81
2021/04/16 06:17:58;;;;;;;8.90;6.23;;;;;;;6.44;55.09;96112.94;5011727;28;20567;-81
2021/04/16 06:20:27;;;;;;;6.57;5.97;;;;;;;6.19;55.08;96113.53;5011809;28;20223;-80
2021/04/16 06:22:55;;;;;;;6.53;5.97;;;;;;;6.13;55.57;96117.44;5012484;28;20229;-81
2021/04/16 06:25:25;;;;;;;11.07;6.83;;;;;;;6.10;55.63;96115.16;5011263;28;20202;-82
2021/04/16 06:27:51;;;;;;;6.87;6.10;;;;;;;6.04;56.09;96115.69;5011223;28;20268;-82
2021/04/16 06:30:22;;;;;;;6.80;6.10;;;;;;;5.93;55.79;96112.47;5011976;28;20343;-82
2021/04/16 06:33:00;;;;;;;8.47;6.60;;;;;;;5.95;56.24;96102.94;5011593;28;20187;-81
2021/04/16 06:35:27;;;;;;;7.13;6.10;;;;;;;5.99;56.22;96104.25;5012212;28;20257;-80
2021/04/16 06:37:53;;;;;;;9.00;6.27;;;;;;;5.98;56.08;96100.88;5011273;28;20222;-80
2021/04/16 06:40:19;;;;;;;7.40;6.60;;;;;;;5.93;56.03;96100.50;5011806;28;20206;-80
2021/04/16 06:42:47;;;;;;;7.43;6.73;;;;;;;6.04;56.05;96094.44;5012270;28;20191;-81
2021/04/16 06:45:15;;;;;;;7.30;6.60;;;;;;;6.18;55.72;96094.00;5011913;28;20251;-81
2021/04/16 06:47:48;;;;;;;7.50;6.60;;;;;;;6.14;55.15;96096.06;5011389;28;20662;-81
2021/04/16 06:50:16;;;;;;;7.93;6.27;;;;;;;5.90;55.40;96100.78;5011556;28;20211;-81
2021/04/16 06:52:48;;;;;;;7.07;6.40;;;;;;;5.91;55.69;96092.16;5010976;28;20261;-81
2021/04/16 06:55:21;;;;;;;7.30;6.60;;;;;;;6.03;55.68;96098.75;5011785;28;20210;-82
2021/04/16 06:57:50;;;;;;;6.73;6.03;;;;;;;6.14;54.88;96098.63;5011635;28;20199;-79
2021/04/16 07:00:41;;;;;;;8.20;6.07;;;;;;;5.80;55.52;96107.59;5010999;28;20206;-81
2021/04/16 07:03:13;;;;;;;6.77;6.17;;;;;;;5.69;55.37;96100.88;5011138;28;20285;-81
2021/04/16 07:05:44;;;;;;;6.20;5.63;;;;;;;5.48;55.89;96110.38;5012007;28;20191;-80
2021/04/16 07:08:19;;;;;;;8.30;6.07;;;;;;;5.71;55.37;96104.09;5011939;28;20781;-83
2021/04/16 07:10:46;;;;;;;7.33;5.90;;;;;;;5.76;55.28;96106.25;5010694;28;20226;-79
2021/04/16 07:13:25;;;;;;;6.73;6.13;;;;;;;5.86;54.94;96115.53;5011526;28;20223;-82
2021/04/16 07:15:51;;;;;;;6.17;5.57;;;;;;;5.40;55.55;96108.47;5011092;28;20202;-81
2021/04/16 07:18:25;;;;;;;6.57;5.97;;;;;;;5.31;55.69;96104.19;5010478;28;20198;-81
2021/04/16 07:20:52;;;;;;;7.93;5.87;;;;;;;5.44;55.88;96103.94;5010445;28;20276;-82
2021/04/16 07:23:18;;;;;;;5.80;5.30;;;;;;;5.79;53.96;96106.78;5007004;28;20733;-82
2021/04/16 07:26:04;;;;;;;6.00;5.47;;;;;;;6.04;54.47;96104.66;5009591;28;20215;-80
2021/04/16 07:28:44;;;;;;;6.83;5.73;;;;;;;6.39;54.41;96104.06;5011328;28;20198;-83
2021/04/16 07:31:26;;;;;;;8.23;5.33;;;;;;;6.73;52.88;96100.09;5011637;28;20209;-83
2021/04/16 07:33:52;;;;;;;6.17;5.37;;;;;;;7.02;51.32;96105.09;5010410;28;20218;-82
2021/04/16 07:36:25;;;;;;;5.67;5.20;;;;;;;6.67;51.00;96102.41;5011332;28;20855;-83
2021/04/16 07:39:23;;;;;;;6.10;5.00;;;;;;;6.49;51.75;96105.69;5011794;28;20198;-83
2021/04/16 07:41:54;;;;;;;5.93;5.33;;;;;;;6.44;51.55;96107.84;5011347;28;20234;-83
2021/04/16 07:44:24;;;;;;;4.90;4.50;;;;;;;6.46;51.10;96112.81;5009698;28;20222;-82
2021/04/16 07:46:56;;;;;;;5.03;4.50;;;;;;;6.46;51.71;96111.06;5011331;28;20385;-82
2021/04/16 07:49:29;;;;;;;5.37;4.60;;;;;;;6.31;50.94;96114.19;5011544;28;20646;-81
2021/04/16 07:52:17;;;;;;;5.33;4.83;;;;;;;6.06;51.97;96118.94;5011148;28;20391;-82
2021/04/16 07:55:03;;;;;;;5.33;4.83;;;;;;;6.11;52.23;96123.63;5010724;28;20285;-80
2021/04/16 07:57:30;;;;;;;5.53;5.00;;;;;;;5.85;52.70;96118.22;4991596;28;20203;-82
2021/04/16 07:59:58;;;;;;;5.60;5.13;;;;;;;5.82;53.13;96116.75;4997277;28;20260;-82
2021/04/16 08:02:29;;;;;;;6.13;5.63;;;;;;;6.27;52.70;96116.22;5009832;28;20210;-79
2021/04/16 08:04:56;;;;;;;6.00;5.40;;;;;;;6.99;51.78;96115.59;4991268;28;20770;-81
2021/04/16 08:07:30;;;;;;;5.00;4.60;;;;;;;7.13;50.65;96114.31;4992028;28;20207;-80
2021/04/16 08:09:59;;;;;;;5.70;5.13;;;;;;;7.10;50.60;96109.50;5010930;28;20291;-84
2021/04/16 08:12:27;;;;;;;5.90;5.40;;;;;;;6.81;50.94;96112.97;5010105;28;20309;-83
2021/04/16 08:15:16;;;;;;;6.77;5.10;;;;;;;6.77;50.85;96115.94;5010914;28;20229;-83
2021/04/16 08:17:45;;;;;;;5.40;4.90;;;;;;;6.63;51.14;96116.41;5000729;28;20191;-83
2021/04/16 08:20:20;;;;;;;6.13;5.00;;;;;;;6.67;50.33;96115.19;5008845;28;20203;-81
2021/04/16 08:22:49;;;;;;;8.77;5.27;;;;;;;6.57;50.66;96112.66;5011274;28;20198;-82
2021/04/16 08:25:18;;;;;;;6.40;5.23;;;;;;;6.62;50.14;96112.25;5001905;28;20208;-81
2021/04/16 08:27:51;;;;;;;6.20;5.03;;;;;;;6.60;50.49;96112.38;5004586;28;20206;-83
2021/04/16 08:30:24;;;;;;;5.70;5.20;;;;;;;6.55;49.55;96117.91;5012912;28;20206;-82
2021/04/16 08:33:02;;;;;;;5.70;5.13;;;;;;;6.76;49.86;96122.03;5015109;28;20242;-82
2021/04/16 08:35:32;;;;;;;6.03;5.33;;;;;;;6.64;49.35;96115.47;5008243;28;20667;-83
2021/04/16 08:38:03;;;;;;;6.00;5.07;;;;;;;6.67;49.77;96112.63;5010480;28;20662;-83
2021/04/16 08:40:42;;;;;;;5.10;4.70;;;;;;;6.71;49.36;96109.66;5015488;28;20617;-82
2021/04/16 08:43:11;;;;;;;5.03;4.47;;;;;;;6.90;49.08;96106.22;5008588;28;20195;-83
2021/04/16 08:45:42;;;;;;;5.60;5.10;;;;;;;7.27;47.32;96104.44;5012686;28;20199;-82
2021/04/16 08:48:14;;;;;;;5.47;4.60;;;;;;;7.72;46.13;96102.78;5014985;28;20262;-82
2021/04/16 08:50:45;;;;;;;6.17;5.03;;;;;;;7.96;46.82;96113.28;5014430;28;20229;-82
2021/04/16 08:53:12;;;;;;;4.90;4.50;;;;;;;7.76;47.12;96104.91;5014289;28;20301;-82
2021/04/16 08:55:41;;;;;;;5.40;4.90;;;;;;;7.76;46.89;96099.78;5014884;28;20191;-82
2021/04/16 08:58:12;;;;;;;4.80;4.40;;;;;;;7.70;46.23;96099.59;5015534;28;20203;-83
2021/04/16 09:00:41;;;;;;;5.60;4.60;;;;;;;8.03;46.66;96101.47;5015006;28;20365;-82
2021/04/16 09:03:18;;;;;;;5.47;4.97;;;;;;;8.03;44.50;96098.91;5013754;28;20278;-82
2021/04/16 09:05:57;;;;;;;5.40;4.73;;;;;;;7.92;44.19;96102.50;5010041;28;20720;-79
2021/04/16 09:08:39;;;;;;;6.03;5.00;;;;;;;8.17;43.77;96095.81;5014515;28;20203;-82
2021/04/16 09:11:09;;;;;;;5.10;4.60;;;;;;;8.46;42.28;96090.44;5013009;28;20242;-82
2021/04/16 09:13:58;;;;;;;4.87;4.30;;;;;;;9.35;40.65;96092.63;4995164;28;20258;-82
2021/04/16 09:16:53;;;;;;;4.43;4.03;;;;;;;10.14;38.96;96088.72;4996183;28;20207;-84
2021/04/16 09:19:42;;;;;;;4.37;3.97;;;;;;;10.35;38.72;96086.50;4997025;28;20257;-83
2021/04/16 09:22:44;;;;;;;5.77;3.93;;;;;;;10.83;37.95;96089.94;5013652;28;20602;-83
2021/04/16 09:25:47;;;;;;;4.03;3.73;;;;;;;11.38;37.22;96090.69;5011401;28;20226;-82
2021/04/16 09:28:36;;;;;;;4.43;4.03;;;;;;;10.77;34.48;96088.03;5014623;28;20294;-83
2021/04/16 09:31:24;;;;;;;3.90;3.60;;;;;;;10.68;35.44;96080.31;5014903;28;20401;-83
2021/04/16 09:34:33;;;;;;;5.13;4.03;;;;;;;11.02;35.77;96086.97;4994772;28;20238;-83
2021/04/16 09:37:32;;;;;;;4.50;4.10;;;;;;;11.31;37.92;96082.03;5005524;28;20199;-84
2021/04/16 09:40:27;;;;;;;4.17;3.77;;;;;;;11.62;38.04;96086.38;5014530;28;20554;-82
2021/04/16 09:43:28;;;;;;;4.20;3.60;;;;;;;11.80;37.68;96083.53;5011502;28;20277;-83
2021/04/16 09:45:58;;;;;;;3.33;3.13;;;;;;;12.03;37.44;96080.00;5008553;28;20234;-82
2021/04/16 09:48:47;;;;;;;4.13;3.73;;;;;;;12.27;36.69;96071.25;5014727;28;20195;-83
2021/04/16 09:51:37;;;;;;;4.00;3.70;;;;;;;12.61;35.41;96070.78;5013901;28;20656;-82
2021/04/16 09:54:36;;;;;;;3.80;3.40;;;;;;;12.82;34.32;96069.25;5009835;28;20375;-83
2021/04/16 09:57:47;;;;;;;5.63;3.60;;;;;;;12.29;34.76;96079.63;5013694;28;20206;-84
2021/04/16 10:00:59;;;;;;;3.70;3.40;;;;;;;11.69;35.99;96082.94;4994836;28;20293;-84
2021/04/16 10:03:48;;;;;;;4.30;3.47;;;;;;;10.84;36.74;96079.47;5007548;28;20307;-82
2021/04/16 10:06:35;;;;;;;4.00;3.70;;;;;;;10.70;37.20;96075.81;4997814;28;20230;-83
2021/04/16 10:09:08;;;;;;;4.43;4.03;;;;;;;10.22;37.36;96076.66;5013855;28;20828;-83
2021/04/16 10:11:37;;;;;;;4.53;3.70;;;;;;;10.09;38.85;96075.53;5010764;28;20991;-80
2021/04/16 10:14:32;;;;;;;;;;;;;;;;;;;;;
2021/04/16 10:17:05;;;;;;;6.43;4.40;;;;;;;10.00;39.23;96064.44;5004346;28;20295;-83
2021/04/16 10:19:41;;;;;;;4.27;3.90;;;;;;;9.92;39.02;96069.59;5012926;28;20207;-84
2021/04/16 10:22:31;;;;;;;4.10;3.70;;;;;;;9.80;39.64;96068.31;4997784;28;20266;-83
2021/04/16 12:43:05;;;;;;;3.80;3.50;;;;;;;11.89;35.73;96007.69;5008310;28;20227;-83
2021/04/16 12:45:57;;;;;;;;;;;;;;;;;;;;;
2021/04/16 12:52:07;;;;;;;;;;;;;;;;;;;;;
2021/04/16 13:07:30;;;;;;;;;;;;;;;;;;;;;
2021/04/16 13:10:53;;;;;;;5.13;3.77;;;;;;;12.56;34.27;96005.91;4996321;28;20234;-82
2021/04/16 13:16:09;;;;;;;4.37;4.07;;;;;;;12.53;35.21;96010.63;5026590;28;20230;-82
2021/04/16 13:18:39;;;;;;;4.47;4.17;;;;;;;12.31;34.91;96002.00;5035920;28;20199;-83
2021/04/16 13:21:11;;;;;;;7.27;4.03;;;;;;;12.43;35.32;95998.00;5034425;28;20222;-81
2021/04/16 13:23:40;;;;;;;4.53;4.23;;;;;;;12.36;34.01;95997.09;5036135;28;20234;-82
2021/04/16 13:26:06;;;;;;;4.47;4.07;;;;;;;12.17;34.94;95995.81;5034633;28;20202;-82
2021/04/16 13:28:35;;;;;;;4.20;3.90;;;;;;;12.61;35.05;95992.47;5037596;28;20208;-83
2021/04/16 13:31:03;;;;;;;6.07;4.20;;;;;;;12.74;34.35;95985.69;5035066;28;20206;-82
2021/04/16 13:33:32;;;;;;;3.90;3.60;;;;;;;13.11;33.82;95987.31;5035514;28;20270;-83
2021/04/16 13:36:22;;;;;;;5.60;4.07;;;;;;;13.23;34.40;95986.88;5035506;28;20198;-82
2021/04/16 13:39:09;;;;;;;4.07;3.77;;;;;;;12.99;33.42;95993.13;5036317;28;20206;-82
2021/04/16 13:41:50;;;;;;;4.03;3.63;;;;;;;13.10;34.50;95979.72;5035346;28;20222;-83
2021/04/16 13:44:17;;;;;;;4.20;3.90;;;;;;;12.71;34.61;95978.28;5034568;28;20221;-82
2021/04/16 13:46:45;;;;;;;4.77;3.63;;;;;;;12.54;34.88;95988.97;5034414;28;20203;-82
2021/04/16 13:49:18;;;;;;;4.33;4.03;;;;;;;12.41;34.68;95984.44;5033203;28;20206;-82
2021/04/16 13:51:44;;;;;;;4.10;3.80;;;;;;;12.32;34.95;95980.34;5034186;28;20200;-79
2021/04/16 13:54:12;;;;;;;4.13;3.83;;;;;;;12.18;35.31;95979.34;5033115;28;20253;-80
2021/04/16 13:56:38;;;;;;;4.73;4.33;;;;;;;12.06;35.24;95971.25;5031017;28;20216;-83
2021/04/16 13:59:06;;;;;;;4.00;3.70;;;;;;;11.95;35.57;95963.91;5027351;28;20222;-84
2021/04/16 14:01:33;;;;;;;4.80;4.20;;;;;;;11.83;35.62;95973.06;5035517;28;20241;-84
2021/04/16 14:04:02;;;;;;;4.33;3.90;;;;;;;11.84;35.44;95977.25;5042506;28;20234;-83
2021/04/16 14:06:32;;;;;;;4.23;3.90;;;;;;;11.76;34.92;95975.53;5036022;28;20260;-80
2021/04/16 14:09:06;;;;;;;4.27;3.87;;;;;;;11.85;34.63;95967.72;5014629;28;20206;-81
2021/04/16 14:11:36;;;;;;;4.37;4.03;;;;;;;11.76;35.05;95969.56;5014214;28;20233;-82
2021/04/16 14:14:06;;;;;;;4.57;4.17;;;;;;;11.65;35.46;95970.75;5014157;28;20238;-82
2021/04/16 14:16:35;;;;;;;4.40;4.00;;;;;;;11.61;35.41;95966.91;5012661;28;20238;-82
2021/04/16 14:19:05;;;;;;;4.30;3.80;;;;;;;11.88;34.58;95959.66;5029677;28;20641;-82
2021/04/16 14:21:35;;;;;;;3.93;3.63;;;;;;;12.20;33.92;95954.16;5030908;28;20226;-82
2021/04/16 14:24:14;;;;;;;3.80;3.50;;;;;;;12.54;33.54;95961.38;5029465;28;20226;-81
2021/04/16 14:26:43;;;;;;;5.00;4.60;;;;;;;12.30;33.05;95961.66;5030313;28;20668;-81
2021/04/16 14:29:10;;;;;;;3.90;3.60;;;;;;;12.39;33.77;95965.75;5028941;28;20293;-82
2021/04/16 14:31:38;;;;;;;4.00;3.70;;;;;;;12.69;33.93;95958.78;5010923;28;20281;-81
2021/04/16 14:34:07;;;;;;;4.13;3.70;;;;;;;12.83;33.97;95957.16;5010125;28;20306;-81
2021/04/16 14:36:34;;;;;;;4.37;3.77;;;;;;;12.59;34.40;95953.91;5012190;28;20256;-82
2021/04/16 14:39:06;;;;;;;5.77;4.00;;;;;;;12.34;35.01;95953.34;5011478;28;20207;-82
2021/04/16 14:41:33;;;;;;;4.57;4.00;;;;;;;12.31;35.27;95958.09;5011229;28;20227;-82